Time;durP1;ratioP1;P1;durP2;ratioP2;P2;SDS_P1;SDS_P2;PMS_P1;PMS_P2;Temp;Humidity;BMP_temperature;BMP_pressure;BME280_temperature;BME280_humidity;BME280_pressure;Samples;Min_cycle;Max_cycle;Signal;HPM_P1;HPM_P2
2023/09/03 00:01:30;;;;;;;7.57;3.05;;;;;;;15.34;100.00;102209.47;6304532;28;20045;-75
2023/09/03 00:04:33;;;;;;;8.60;3.60;;;;;;;15.31;100.00;102214.94;6295949;28;20110;-76
2023/09/03 00:07:34;;;;;;;3.97;2.08;;;;;;;15.31;100.00;102203.50;6287572;28;20056;-78
2023/09/03 00:10:37;;;;;;;4.88;2.80;;;;;;;15.28;100.00;102196.53;6286473;28;20053;-75
2023/09/03 00:13:38;;;;;;;8.32;3.80;;;;;;;15.25;100.00;102190.53;6296760;28;20437;-77
2023/09/03 00:16:40;;;;;;;4.20;2.33;;;;;;;15.21;100.00;102188.06;6304225;28;20060;-76
2023/09/03 00:19:42;;;;;;;8.43;4.78;;;;;;;15.18;100.00;102196.16;6294455;28;20048;-76
2023/09/03 00:22:44;;;;;;;5.75;2.65;;;;;;;15.08;100.00;102196.66;6297222;28;20048;-78
2023/09/03 00:25:45;;;;;;;5.85;3.08;;;;;;;15.08;100.00;102207.25;6303752;28;20049;-76
2023/09/03 00:28:47;;;;;;;3.72;2.50;;;;;;;15.03;100.00;102211.91;6303907;28;20055;-78
2023/09/03 00:31:48;;;;;;;4.93;2.58;;;;;;;14.99;100.00;102227.09;6303798;28;20041;-78
2023/09/03 00:34:51;;;;;;;5.15;2.78;;;;;;;14.94;100.00;102232.63;6303788;28;20045;-78
2023/09/03 00:37:52;;;;;;;6.57;2.67;;;;;;;14.92;100.00;102245.06;6303795;28;20074;-78
2023/09/03 00:40:54;;;;;;;3.95;2.75;;;;;;;14.86;100.00;102258.59;6292925;28;20056;-78
2023/09/03 00:43:55;;;;;;;5.40;2.78;;;;;;;14.82;100.00;102256.16;6294639;28;20048;-77
2023/09/03 00:46:57;;;;;;;5.93;2.80;;;;;;;14.78;100.00;102254.59;6293665;28;20044;-78
2023/09/03 00:50:00;;;;;;;9.52;3.35;;;;;;;14.78;100.00;102257.25;6283613;28;20048;-78
2023/09/03 00:53:01;;;;;;;6.82;3.50;;;;;;;14.75;100.00;102258.22;6290520;28;20047;-78
2023/09/03 00:56:03;;;;;;;5.57;3.13;;;;;;;14.74;100.00;102245.94;6303182;28;20056;-78
2023/09/03 00:59:06;;;;;;;5.85;3.53;;;;;;;14.75;100.00;102236.19;6289989;28;20048;-78
2023/09/03 01:02:09;;;;;;;5.88;3.22;;;;;;;14.72;100.00;102226.63;6299673;28;20053;-78
2023/09/03 01:05:13;;;;;;;6.18;3.58;;;;;;;14.64;100.00;102223.47;6302693;28;20433;-78
2023/09/03 01:08:14;;;;;;;6.60;3.55;;;;;;;14.57;100.00;102225.53;6303365;28;20044;-78
2023/09/03 01:11:28;;;;;;;4.30;2.92;;;;;;;14.53;100.00;102229.25;6310690;22;20049;-77
2023/09/03 01:14:37;;;;;;;5.97;3.58;;;;;;;14.52;100.00;102238.13;6273949;28;20064;-77
2023/09/03 01:17:46;;;;;;;5.65;3.40;;;;;;;14.51;100.00;102238.22;6253325;28;20053;-77
2023/09/03 01:21:14;;;;;;;6.78;3.92;;;;;;;14.50;100.00;102247.06;6252985;28;20053;-77
2023/09/03 01:24:41;;;;;;;6.95;3.35;;;;;;;14.41;100.00;102254.47;6252851;28;20053;-77
2023/09/03 01:27:51;;;;;;;6.22;3.45;;;;;;;14.41;100.00;102259.75;6253008;28;20046;-77
2023/09/03 01:30:57;;;;;;;15.40;4.25;;;;;;;14.41;100.00;102250.97;6252624;28;20361;-75
2023/09/03 01:34:03;;;;;;;7.50;3.78;;;;;;;14.36;100.00;102245.88;6252883;28;20042;-77
2023/09/03 01:37:05;;;;;;;9.43;3.63;;;;;;;14.35;100.00;102261.78;6252435;28;20053;-77
2023/09/03 01:40:08;;;;;;;5.68;3.42;;;;;;;14.35;100.00;102269.72;6252718;28;20049;-77
2023/09/03 01:43:10;;;;;;;5.25;3.20;;;;;;;14.31;100.00;102263.75;6252641;28;20041;-75
2023/09/03 01:46:22;;;;;;;7.35;4.18;;;;;;;14.26;100.00;102255.16;6252404;28;20045;-77
2023/09/03 01:49:30;;;;;;;6.78;3.83;;;;;;;14.22;100.00;102258.88;6252699;28;20050;-77
2023/09/03 01:52:39;;;;;;;7.72;4.20;;;;;;;14.17;100.00;102272.28;6252433;28;20115;-77
2023/09/03 01:55:47;;;;;;;7.73;4.20;;;;;;;14.13;100.00;102269.84;6252038;28;20053;-77
2023/09/03 01:58:52;;;;;;;7.70;4.15;;;;;;;14.10;100.00;102270.81;6252357;28;20371;-75
2023/09/03 02:01:56;;;;;;;5.07;3.17;;;;;;;14.11;100.00;102258.47;6252065;28;20056;-75
2023/09/03 02:04:57;;;;;;;8.10;4.28;;;;;;;14.11;100.00;102259.31;6261027;28;20045;-75
2023/09/03 02:07:59;;;;;;;4.70;2.90;;;;;;;14.06;100.00;102242.81;6265485;28;20339;-74
2023/09/03 02:11:00;;;;;;;6.63;3.97;;;;;;;14.05;100.00;102241.09;6262307;28;20052;-77
2023/09/03 02:14:01;;;;;;;5.22;3.70;;;;;;;13.96;100.00;102225.63;6276847;28;20040;-77
2023/09/03 02:17:04;;;;;;;5.03;3.40;;;;;;;13.96;100.00;102221.22;6268818;28;20052;-77
2023/09/03 02:20:07;;;;;;;3.92;2.85;;;;;;;13.93;100.00;102209.91;6268028;28;20338;-75
2023/09/03 02:23:08;;;;;;;6.28;3.78;;;;;;;13.87;100.00;102211.03;6276320;28;20052;-77
2023/09/03 02:26:10;;;;;;;6.80;3.90;;;;;;;13.80;100.00;102206.06;6276149;28;20063;-77
2023/09/03 02:29:12;;;;;;;5.32;3.85;;;;;;;13.78;100.00;102208.81;6276148;28;20056;-77
2023/09/03 02:32:14;;;;;;;5.00;3.13;;;;;;;13.78;100.00;102211.44;6276245;28;20049;-77
2023/09/03 02:35:16;;;;;;;5.10;3.00;;;;;;;13.79;100.00;102213.16;6275821;28;20056;-74
2023/09/03 02:38:17;;;;;;;5.60;3.20;;;;;;;13.71;100.00;102212.63;6276511;28;20049;-77
2023/09/03 02:41:18;;;;;;;6.57;3.53;;;;;;;13.66;100.00;102222.53;6275988;28;20353;-74
2023/09/03 02:44:20;;;;;;;7.45;3.70;;;;;;;13.61;100.00;102217.44;6267128;28;20334;-77
2023/09/03 02:47:23;;;;;;;6.07;3.65;;;;;;;13.47;100.00;102211.03;6239795;28;20058;-76
2023/09/03 02:50:24;;;;;;;5.25;3.40;;;;;;;13.42;100.00;102227.91;6237285;28;20045;-76
2023/09/03 02:53:25;;;;;;;6.32;3.38;;;;;;;13.40;100.00;102240.34;6238285;28;20056;-75
2023/09/03 02:56:27;;;;;;;6.93;3.83;;;;;;;13.36;100.00;102237.91;6236706;28;20052;-75
2023/09/03 02:59:29;;;;;;;4.30;2.85;;;;;;;13.33;100.00;102232.72;6237828;28;20046;-76
2023/09/03 03:02:32;;;;;;;7.68;3.13;;;;;;;13.31;100.00;102234.59;6238237;28;20095;-75
2023/09/03 03:05:33;;;;;;;4.55;3.15;;;;;;;13.31;100.00;102237.22;6238226;28;20049;-75
2023/09/03 03:08:34;;;;;;;7.85;3.22;;;;;;;13.27;100.00;102239.13;6237367;28;20448;-75
2023/09/03 03:11:36;;;;;;;4.65;3.20;;;;;;;13.22;100.00;102241.09;6238526;28;20041;-75
2023/09/03 03:14:37;;;;;;;4.57;2.97;;;;;;;13.20;100.00;102240.25;6236839;28;20053;-76
2023/09/03 03:17:40;;;;;;;6.53;3.58;;;;;;;13.21;100.00;102249.88;6238829;28;20068;-74
2023/09/03 03:20:41;;;;;;;6.30;3.95;;;;;;;13.21;100.00;102258.66;6238938;28;20058;-75
2023/09/03 03:23:47;;;;;;;7.57;4.18;;;;;;;13.27;100.00;102264.66;6238993;28;20048;-75
2023/09/03 03:26:48;;;;;;;6.82;3.83;;;;;;;13.28;100.00;102276.94;6237145;28;20048;-76
2023/09/03 03:29:52;;;;;;;9.63;4.20;;;;;;;13.27;100.00;102286.66;6237860;28;20069;-76
2023/09/03 03:32:55;;;;;;;9.85;4.53;;;;;;;13.24;100.00;102299.09;6243435;28;20045;-76
2023/09/03 03:35:56;;;;;;;8.95;4.43;;;;;;;13.24;100.00;102301.75;6233741;28;20053;-76
2023/09/03 03:38:58;;;;;;;7.88;4.50;;;;;;;13.21;100.00;102300.03;6225843;28;20362;-76
2023/09/03 03:41:59;;;;;;;5.55;4.00;;;;;;;13.18;100.00;102298.41;6225762;28;20046;-76
2023/09/03 03:45:00;;;;;;;9.32;4.75;;;;;;;13.14;100.00;102298.56;6225571;28;20362;-75
2023/09/03 03:48:04;;;;;;;8.02;4.35;;;;;;;13.11;100.00;102290.78;6225777;28;20052;-76
2023/09/03 03:51:05;;;;;;;9.13;4.60;;;;;;;13.01;100.00;102286.78;6225779;28;20457;-76
2023/09/03 03:54:07;;;;;;;6.85;3.95;;;;;;;12.95;100.00;102291.38;6225689;28;20053;-76
2023/09/03 03:57:08;;;;;;;9.18;4.22;;;;;;;12.97;100.00;102290.44;6225452;28;20053;-76
2023/09/03 04:00:11;;;;;;;8.65;4.45;;;;;;;12.94;100.00;102289.66;6225545;28;20137;-76
2023/09/03 04:03:13;;;;;;;9.88;5.20;;;;;;;12.93;100.00;102287.91;6226035;28;20050;-76
2023/09/03 04:06:15;;;;;;;7.10;3.72;;;;;;;12.91;100.00;102304.75;6239768;28;20491;-74
2023/09/03 04:09:16;;;;;;;8.27;4.55;;;;;;;12.88;100.00;102308.34;6261043;28;20056;-76
2023/09/03 04:12:18;;;;;;;8.02;4.93;;;;;;;12.87;100.00;102300.50;6265167;28;20369;-76
2023/09/03 04:15:19;;;;;;;8.57;4.63;;;;;;;12.85;100.00;102294.41;6271841;28;20072;-76
2023/09/03 04:18:23;;;;;;;8.57;5.07;;;;;;;12.86;100.00;102317.25;6274709;28;20057;-76
2023/09/03 04:21:24;;;;;;;9.02;4.50;;;;;;;12.83;100.00;102312.94;6261817;28;20049;-76
2023/09/03 04:24:26;;;;;;;9.50;5.05;;;;;;;12.81;100.00;102301.59;6272710;28;20349;-76
2023/09/03 04:27:27;;;;;;;9.70;5.13;;;;;;;12.88;100.00;102307.50;6274266;28;20048;-75
2023/09/03 04:30:28;;;;;;;9.98;4.72;;;;;;;12.90;100.00;102301.25;6264140;28;20068;-75
2023/09/03 04:33:32;;;;;;;9.63;5.53;;;;;;;12.92;100.00;102291.47;6237666;28;20045;-74
2023/09/03 04:36:33;;;;;;;9.25;5.30;;;;;;;12.92;100.00;102283.56;6242015;28;20042;-75
2023/09/03 04:39:35;;;;;;;7.47;4.45;;;;;;;12.94;100.00;102284.38;6240946;28;20056;-74
2023/09/03 04:42:39;;;;;;;9.63;4.78;;;;;;;12.94;100.00;102288.78;6253349;28;20046;-75
2023/09/03 04:45:46;;;;;;;13.40;5.05;;;;;;;12.99;100.00;102309.72;6248730;28;20046;-76
2023/09/03 04:48:50;;;;;;;11.48;6.38;;;;;;;12.98;100.00;102314.13;6250512;28;20085;-75
2023/09/03 04:51:51;;;;;;;10.88;4.72;;;;;;;12.97;100.00;102324.75;6259752;28;20349;-74
2023/09/03 04:54:54;;;;;;;7.47;4.65;;;;;;;12.94;100.00;102325.72;6278060;28;20045;-74
2023/09/03 04:57:55;;;;;;;8.50;5.40;;;;;;;12.97;100.00;102335.31;6274626;28;20049;-74
2023/09/03 05:00:57;;;;;;;9.02;5.03;;;;;;;12.94;100.00;102347.72;6265450;28;20061;-74
2023/09/03 05:03:59;;;;;;;9.05;5.45;;;;;;;12.94;100.00;102365.31;6269168;28;20045;-74
2023/09/03 05:07:02;;;;;;;10.27;5.43;;;;;;;12.89;100.00;102377.81;6264211;28;20053;-74
2023/09/03 05:10:04;;;;;;;11.15;5.82;;;;;;;12.90;100.00;102390.09;6269718;28;20060;-74
2023/09/03 05:13:06;;;;;;;7.65;4.25;;;;;;;12.94;100.00;102403.13;6268355;28;20048;-74
2023/09/03 05:16:07;;;;;;;10.00;5.15;;;;;;;12.94;100.00;102410.16;6277905;28;20049;-74
2023/09/03 05:19:14;;;;;;;8.95;5.03;;;;;;;12.92;100.00;102415.50;6277746;28;20049;-74
2023/09/03 05:22:16;;;;;;;7.38;4.05;;;;;;;12.95;100.00;102414.53;6277890;28;20075;-74
2023/09/03 05:25:17;;;;;;;8.70;5.25;;;;;;;12.95;100.00;102415.41;6277422;28;20052;-74
2023/09/03 05:28:18;;;;;;;11.27;5.70;;;;;;;12.95;100.00;102407.50;6270146;28;20354;-74
2023/09/03 05:31:20;;;;;;;10.50;5.57;;;;;;;12.98;100.00;102406.50;6240463;28;20060;-74
2023/09/03 05:34:23;;;;;;;9.18;5.25;;;;;;;13.03;100.00;102412.47;6249784;28;20089;-74
2023/09/03 05:37:25;;;;;;;10.50;4.60;;;;;;;13.17;100.00;102411.94;6239682;28;20133;-74
2023/09/03 05:40:26;;;;;;;11.25;5.65;;;;;;;13.19;100.00;102415.41;6239658;28;20053;-74
2023/09/03 05:43:27;;;;;;;11.38;6.43;;;;;;;13.22;100.00;102415.34;6240048;28;20050;-75
2023/09/03 05:46:29;;;;;;;9.77;5.57;;;;;;;13.21;100.00;102422.34;6243182;28;20451;-76
2023/09/03 05:49:31;;;;;;;9.20;4.43;;;;;;;13.27;100.00;102423.09;6235689;28;20049;-75
2023/09/03 05:52:33;;;;;;;9.90;5.43;;;;;;;13.31;100.00;102432.63;6238684;28;20060;-75
2023/09/03 05:55:37;;;;;;;10.18;5.88;;;;;;;13.32;100.00;102437.81;6240189;28;20054;-76
2023/09/03 05:58:39;;;;;;;9.82;5.55;;;;;;;13.37;100.00;102449.06;6238140;28;20049;-76
2023/09/03 06:01:43;;;;;;;13.23;6.95;;;;;;;13.36;100.00;102443.88;6240737;28;20052;-75
2023/09/03 06:04:46;;;;;;;11.25;6.70;;;;;;;13.36;100.00;102442.06;6238699;28;20196;-77
2023/09/03 06:07:47;;;;;;;15.57;6.53;;;;;;;13.41;100.00;102439.25;6254339;28;20050;-76
2023/09/03 06:10:49;;;;;;;11.88;6.03;;;;;;;13.47;100.00;102441.66;6257904;28;20460;-74
2023/09/03 06:13:50;;;;;;;14.68;6.53;;;;;;;13.53;100.00;102440.56;6254875;28;20480;-74
2023/09/03 06:16:53;;;;;;;11.50;6.10;;;;;;;13.59;100.00;102424.50;6255445;28;20053;-75
2023/09/03 06:19:56;;;;;;;10.00;5.40;;;;;;;13.64;100.00;102425.16;6239636;28;20046;-74
2023/09/03 06:22:57;;;;;;;9.38;5.68;;;;;;;13.73;100.00;102427.44;6237924;28;20048;-74
2023/09/03 06:25:59;;;;;;;8.60;5.50;;;;;;;13.75;100.00;102433.50;6240001;28;20050;-75
2023/09/03 06:29:00;;;;;;;12.75;6.65;;;;;;;13.80;100.00;102436.81;6240329;28;20041;-74
2023/09/03 06:32:01;;;;;;;12.48;6.57;;;;;;;13.73;100.00;102432.72;6247478;28;20674;-74
2023/09/03 06:35:05;;;;;;;13.60;6.82;;;;;;;13.75;100.00;102435.31;6258577;28;20037;-74
2023/09/03 06:38:07;;;;;;;10.57;5.18;;;;;;;13.82;100.00;102440.28;6257520;28;20045;-74
2023/09/03 06:41:09;;;;;;;10.80;5.57;;;;;;;13.88;100.00;102447.97;6253181;28;20369;-75
2023/09/03 06:44:11;;;;;;;9.85;5.40;;;;;;;13.89;100.00;102454.09;6260667;28;20040;-74
2023/09/03 06:47:12;;;;;;;9.38;5.57;;;;;;;13.98;100.00;102452.88;6267255;28;20100;-75
2023/09/03 06:50:16;;;;;;;11.60;6.13;;;;;;;14.07;100.00;102452.50;6263991;28;20373;-76
2023/09/03 06:53:17;;;;;;;14.65;6.22;;;;;;;14.11;100.00;102449.69;6272439;28;20076;-75
2023/09/03 06:56:19;;;;;;;9.85;4.82;;;;;;;14.23;100.00;102453.59;6264977;28;20136;-75
2023/09/03 06:59:23;;;;;;;11.18;5.45;;;;;;;14.26;100.00;102450.84;6272509;28;20060;-74
2023/09/03 07:02:26;;;;;;;9.65;5.65;;;;;;;14.38;100.00;102446.81;6263194;28;20060;-75
2023/09/03 07:05:28;;;;;;;9.07;4.40;;;;;;;14.48;100.00;102450.81;6265999;28;20048;-75
2023/09/03 07:08:30;;;;;;;9.82;4.88;;;;;;;14.53;100.00;102459.41;6266819;28;20049;-74
2023/09/03 07:11:31;;;;;;;10.77;5.07;;;;;;;14.59;100.00;102463.59;6274018;28;20103;-75
2023/09/03 07:14:33;;;;;;;6.78;4.32;;;;;;;14.62;100.00;102468.75;6274048;28;20045;-75
2023/09/03 07:17:34;;;;;;;7.22;4.50;;;;;;;14.67;100.00;102472.06;6265872;28;20052;-75
2023/09/03 07:20:37;;;;;;;7.80;4.50;;;;;;;14.72;100.00;102467.47;6275106;28;20444;-75
2023/09/03 07:23:38;;;;;;;7.07;4.65;;;;;;;14.80;100.00;102464.44;6275050;28;20076;-75
2023/09/03 07:26:39;;;;;;;7.13;4.20;;;;;;;14.87;100.00;102473.84;6274909;28;20049;-75
2023/09/03 07:29:41;;;;;;;6.55;3.50;;;;;;;14.90;100.00;102471.09;6275166;28;20056;-75
2023/09/03 07:32:42;;;;;;;5.40;3.08;;;;;;;14.97;100.00;102481.31;6274974;28;20060;-75
2023/09/03 07:35:45;;;;;;;13.80;4.30;;;;;;;15.05;100.00;102477.50;6274494;28;20425;-75
2023/09/03 07:38:46;;;;;;;7.85;4.10;;;;;;;15.05;100.00;102485.44;6275006;28;20053;-75
2023/09/03 07:41:48;;;;;;;8.60;4.45;;;;;;;15.12;100.00;102481.56;6275272;28;20049;-75
2023/09/03 07:44:49;;;;;;;5.22;2.88;;;;;;;15.23;100.00;102481.97;6272953;28;20052;-75
2023/09/03 07:47:50;;;;;;;7.70;3.60;;;;;;;15.34;100.00;102476.16;6258802;28;20054;-76
2023/09/03 07:50:53;;;;;;;4.72;3.00;;;;;;;15.42;100.00;102488.13;6264999;28;20065;-76
2023/09/03 07:54:08;;;;;;;6.38;3.22;;;;;;;15.48;100.00;102489.63;6257675;28;20437;-75
2023/09/03 07:57:10;;;;;;;5.88;3.28;;;;;;;15.55;100.00;102493.72;6262860;28;20072;-76
2023/09/03 08:00:19;;;;;;;5.45;3.25;;;;;;;15.57;100.00;102477.75;6250079;28;20088;-75
2023/09/03 08:03:20;;;;;;;;;;;;;;;15.62;100.00;102473.09;6257856;28;20060;-75
2023/09/03 08:06:23;;;;;;;8.25;3.95;;;;;;;15.63;100.00;102481.00;6262217;28;19921;-74
2023/09/03 08:09:24;;;;;;;10.05;3.15;;;;;;;15.70;100.00;102486.88;6266444;28;20049;-77
2023/09/03 08:12:26;;;;;;;4.70;3.10;;;;;;;15.79;100.00;102507.66;6270764;28;20048;-77
2023/09/03 08:15:27;;;;;;;3.92;2.72;;;;;;;15.86;100.00;102510.91;6268558;28;20041;-77
2023/09/03 08:18:29;;;;;;;5.72;2.72;;;;;;;15.90;100.00;102515.97;6277288;28;20045;-76
2023/09/03 08:21:31;;;;;;;4.65;2.13;;;;;;;16.03;100.00;102518.03;6279065;28;20353;-77
2023/09/03 08:24:33;;;;;;;5.32;2.95;;;;;;;15.99;100.00;102509.38;6278964;28;20056;-77
2023/09/03 08:27:34;;;;;;;6.07;2.70;;;;;;;16.07;100.00;102507.19;6262331;28;20049;-76
2023/09/03 08:30:36;;;;;;;7.57;2.42;;;;;;;16.14;100.00;102505.97;6254164;28;20049;-74
2023/09/03 08:33:40;;;;;;;3.53;1.80;;;;;;;16.23;100.00;102512.63;6254090;28;20041;-77
2023/09/03 08:36:43;;;;;;;2.92;2.15;;;;;;;16.30;100.00;102511.38;6254116;28;20172;-77
2023/09/03 08:39:44;;;;;;;2.60;2.00;;;;;;;16.38;100.00;102521.63;6254124;28;20050;-76
2023/09/03 08:42:47;;;;;;;2.67;1.92;;;;;;;16.44;100.00;102519.53;6254215;28;20045;-76
2023/09/03 08:45:51;;;;;;;4.15;1.95;;;;;;;16.49;100.00;102521.97;6253637;28;20045;-76
2023/09/03 08:48:54;;;;;;;4.78;2.90;;;;;;;16.60;100.00;102526.72;6260103;28;20265;-76
2023/09/03 08:51:57;;;;;;;5.60;1.85;;;;;;;16.70;100.00;102525.31;6270003;28;20052;-74
2023/09/03 08:55:01;;;;;;;2.72;2.00;;;;;;;16.90;100.00;102514.59;6247289;28;20075;-75
2023/09/03 08:58:02;;;;;;;2.40;1.30;;;;;;;16.96;100.00;102508.94;6254920;28;20057;-74
2023/09/03 09:01:06;;;;;;;1.30;0.82;;;;;;;17.05;100.00;102512.06;6259762;28;20053;-74
2023/09/03 09:04:08;;;;;;;1.08;0.88;;;;;;;17.07;100.00;102520.81;6259210;28;20322;-75
2023/09/03 09:07:11;;;;;;;2.08;1.00;;;;;;;17.08;100.00;102518.09;6262281;28;20045;-75
2023/09/03 09:10:16;;;;;;;1.83;1.00;;;;;;;17.04;100.00;102515.66;6249445;28;20349;-75
2023/09/03 09:13:20;;;;;;;2.47;0.90;;;;;;;17.11;100.00;102517.91;6255799;28;20060;-75
2023/09/03 09:16:22;;;;;;;1.08;0.82;;;;;;;17.15;100.00;102529.22;6252520;28;20099;-75
2023/09/03 09:19:23;;;;;;;1.52;0.85;;;;;;;17.23;100.00;102527.03;6260067;28;20076;-75
2023/09/03 09:22:26;;;;;;;1.95;1.00;;;;;;;17.33;100.00;102533.56;6275385;28;20053;-74
2023/09/03 09:25:28;;;;;;;2.90;1.00;;;;;;;17.39;100.00;102527.06;6276946;28;20045;-75
2023/09/03 09:28:29;;;;;;;2.33;0.77;;;;;;;17.56;100.00;102526.16;6251612;28;20045;-75
2023/09/03 09:31:32;;;;;;;1.38;0.90;;;;;;;17.75;100.00;102537.53;6252395;28;20446;-76
2023/09/03 09:34:42;;;;;;;2.78;0.82;;;;;;;17.83;100.00;102529.16;6244730;28;20049;-77
2023/09/03 09:37:45;;;;;;;1.38;0.85;;;;;;;17.87;100.00;102528.88;6239198;28;20082;-76
2023/09/03 09:40:46;;;;;;;2.22;0.90;;;;;;;17.78;100.00;102529.41;6254749;28;20049;-76
2023/09/03 09:43:48;;;;;;;4.88;1.77;;;;;;;17.85;100.00;102522.81;6253917;28;20063;-77
2023/09/03 09:46:49;;;;;;;2.88;0.65;;;;;;;17.94;100.00;102518.75;6250396;28;20057;-76
2023/09/03 09:49:51;;;;;;;0.95;0.65;;;;;;;18.02;100.00;102518.31;6254696;28;20061;-75
2023/09/03 09:52:54;;;;;;;0.80;0.80;;;;;;;18.15;100.00;102514.03;6261934;28;20053;-75
2023/09/03 09:55:59;;;;;;;2.35;0.80;;;;;;;18.21;100.00;102527.88;6250839;28;20049;-76
2023/09/03 09:59:01;;;;;;;2.03;0.80;;;;;;;18.16;100.00;102519.25;6255251;28;20057;-76
2023/09/03 10:02:12;;;;;;;3.20;1.00;;;;;;;18.12;100.00;102516.84;6249901;28;20125;-75
2023/09/03 10:05:13;;;;;;;1.35;0.90;;;;;;;17.97;100.00;102522.09;6260830;28;20344;-76
2023/09/03 10:08:16;;;;;;;0.88;0.63;;;;;;;18.04;100.00;102524.44;6261887;28;20049;-76
2023/09/03 10:11:18;;;;;;;0.90;0.80;;;;;;;18.18;100.00;102521.84;6263701;28;20059;-76
2023/09/03 10:14:19;;;;;;;1.70;0.90;;;;;;;18.31;100.00;102527.34;6261131;28;20088;-74
2023/09/03 10:17:21;;;;;;;0.90;0.80;;;;;;;18.47;100.00;102528.16;6265231;28;20136;-75
2023/09/03 10:20:24;;;;;;;1.00;0.73;;;;;;;18.61;100.00;102530.84;6265037;28;20049;-75
2023/09/03 10:23:34;;;;;;;1.35;0.93;;;;;;;18.71;100.00;102533.84;6261400;28;20049;-75
2023/09/03 10:26:41;;;;;;;3.38;0.88;;;;;;;18.71;100.00;102532.09;6266500;28;20041;-75
2023/09/03 10:29:46;;;;;;;4.28;0.70;;;;;;;18.59;100.00;102537.22;6272488;28;20044;-75
2023/09/03 10:32:48;;;;;;;0.60;0.60;;;;;;;18.62;100.00;102539.69;6259899;28;20045;-75
2023/09/03 10:36:12;;;;;;;1.10;0.70;;;;;;;18.71;100.00;102537.41;6266670;28;20053;-75
2023/09/03 10:39:23;;;;;;;1.45;0.70;;;;;;;18.69;100.00;102538.44;6271474;28;20365;-75
2023/09/03 10:42:29;;;;;;;2.05;0.70;;;;;;;18.78;100.00;102540.56;6275860;28;20076;-75
2023/09/03 10:45:30;;;;;;;1.55;1.05;;;;;;;18.93;100.00;102552.94;6268608;28;20462;-75
2023/09/03 10:48:34;;;;;;;4.68;0.70;;;;;;;19.12;100.00;102557.16;6260996;28;20446;-76
2023/09/03 10:51:39;;;;;;;1.98;0.77;;;;;;;19.01;100.00;102556.03;6266313;28;20052;-76
2023/09/03 10:54:42;;;;;;;1.13;0.80;;;;;;;19.12;100.00;102559.84;6275589;28;20044;-75
2023/09/03 10:57:45;;;;;;;0.85;0.60;;;;;;;19.19;100.00;102555.88;6275277;28;20049;-75
2023/09/03 11:01:17;;;;;;;1.23;0.80;;;;;;;19.23;100.00;102563.56;6251018;28;20053;-74
2023/09/03 11:04:18;;;;;;;1.00;0.80;;;;;;;19.31;100.00;102556.94;6250913;28;20041;-75
2023/09/03 11:07:24;;;;;;;1.17;0.93;;;;;;;19.36;100.00;102553.03;6250565;28;20065;-76
2023/09/03 11:10:44;;;;;;;2.15;0.88;;;;;;;19.38;100.00;102556.44;6258757;28;20092;-75
2023/09/03 11:13:50;;;;;;;5.35;0.95;;;;;;;19.23;100.00;102558.25;6250599;28;20080;-75
2023/09/03 11:16:51;;;;;;;1.52;0.80;;;;;;;19.12;100.00;102557.16;6250498;28;20052;-75
2023/09/03 11:19:53;;;;;;;1.05;0.80;;;;;;;19.28;100.00;102555.28;6250649;28;20327;-75
2023/09/03 11:22:55;;;;;;;1.35;0.70;;;;;;;19.37;100.00;102556.53;6250413;28;20346;-75
2023/09/03 11:25:59;;;;;;;1.85;0.95;;;;;;;19.24;100.00;102559.94;6250156;28;20434;-74
2023/09/03 11:29:02;;;;;;;3.45;0.70;;;;;;;19.31;100.00;102551.59;6250652;28;20045;-75
2023/09/03 11:32:03;;;;;;;1.67;0.88;;;;;;;19.44;100.00;102556.09;6250438;28;20049;-75
2023/09/03 11:35:05;;;;;;;1.40;1.30;;;;;;;19.69;100.00;102557.22;6249973;28;20365;-75
2023/09/03 11:38:08;;;;;;;3.78;1.08;;;;;;;19.91;100.00;102556.75;6256815;28;20071;-75
2023/09/03 11:41:11;;;;;;;2.45;1.00;;;;;;;19.70;100.00;102559.78;6266540;28;20049;-75
2023/09/03 11:44:14;;;;;;;1.45;0.95;;;;;;;19.59;100.00;102572.06;6279114;28;20051;-75
2023/09/03 11:47:15;;;;;;;1.58;0.90;;;;;;;19.59;100.00;102572.06;6279826;28;20183;-75
2023/09/03 11:50:18;;;;;;;2.25;1.10;;;;;;;20.10;100.00;102567.94;6280001;28;20052;-76
2023/09/03 11:53:19;;;;;;;2.47;1.00;;;;;;;20.18;100.00;102576.31;6279757;28;20048;-75
2023/09/03 11:56:24;;;;;;;3.17;1.27;;;;;;;20.41;100.00;102573.94;6279653;28;20056;-75
2023/09/03 11:59:25;;;;;;;4.10;0.80;;;;;;;20.83;100.00;102567.59;6279778;28;20056;-76
2023/09/03 12:02:28;;;;;;;2.95;1.35;;;;;;;21.34;100.00;102574.81;6279788;28;20057;-76
2023/09/03 12:05:30;;;;;;;2.03;0.93;;;;;;;21.66;100.00;102572.56;6279305;28;20091;-76
2023/09/03 12:08:32;;;;;;;0.47;0.43;;;;;;;21.82;100.00;102570.50;6279678;28;20076;-76
2023/09/03 12:11:35;;;;;;;3.38;1.15;;;;;;;21.47;100.00;102581.03;6279473;28;20095;-76
2023/09/03 12:14:38;;;;;;;3.38;1.02;;;;;;;21.70;100.00;102577.56;6279078;28;20137;-76
2023/09/03 12:17:39;;;;;;;2.92;1.05;;;;;;;21.68;100.00;102584.03;6279155;28;20433;-75
2023/09/03 12:20:42;;;;;;;1.30;0.80;;;;;;;21.93;100.00;102567.88;6279192;28;20059;-76
2023/09/03 12:23:45;;;;;;;2.53;1.02;;;;;;;21.92;100.00;102571.53;6279300;28;20134;-76
2023/09/03 12:26:47;;;;;;;1.58;1.08;;;;;;;21.56;100.00;102569.69;6278965;28;20045;-76
2023/09/03 12:29:55;;;;;;;3.22;0.90;;;;;;;21.07;100.00;102573.06;6274357;28;20046;-76
2023/09/03 12:32:56;;;;;;;3.78;1.05;;;;;;;21.34;100.00;102572.16;6270756;28;20045;-75
2023/09/03 12:36:05;;;;;;;2.45;1.05;;;;;;;21.86;100.00;102574.66;6263345;28;20045;-76
2023/09/03 12:39:07;;;;;;;1.00;0.90;;;;;;;21.47;100.00;102567.66;6260463;28;20053;-75
2023/09/03 12:42:11;;;;;;;0.70;0.70;;;;;;;21.59;100.00;102577.50;6257095;28;20044;-76
2023/09/03 12:45:13;;;;;;;1.60;0.80;;;;;;;21.40;100.00;102575.28;6254938;28;20140;-75
2023/09/03 12:48:14;;;;;;;1.23;0.98;;;;;;;21.46;100.00;102574.81;6257973;28;20063;-76
2023/09/03 12:51:17;;;;;;;2.85;1.10;;;;;;;21.93;100.00;102573.25;6248051;28;20053;-75
2023/09/03 12:54:18;;;;;;;1.65;0.98;;;;;;;22.37;100.00;102577.22;6257564;28;20433;-76
2023/09/03 12:57:23;;;;;;;1.42;0.70;;;;;;;22.60;100.00;102577.31;6267814;28;20041;-75
2023/09/03 13:00:25;;;;;;;0.52;0.52;;;;;;;22.83;100.00;102579.09;6269943;28;20475;-76
2023/09/03 13:03:26;;;;;;;1.67;0.95;;;;;;;23.24;100.00;102581.31;6267118;28;20053;-75
2023/09/03 13:06:28;;;;;;;1.23;0.52;;;;;;;22.65;100.00;102569.78;6269811;28;20054;-76
2023/09/03 13:09:29;;;;;;;1.33;0.80;;;;;;;22.10;100.00;102561.31;6275570;28;20057;-75
2023/09/03 13:12:32;;;;;;;2.80;1.13;;;;;;;22.11;100.00;102564.84;6309798;22;20464;-76
2023/09/03 13:15:33;;;;;;;3.53;0.85;;;;;;;22.42;100.00;102560.78;6302108;28;20044;-76
2023/09/03 13:18:35;;;;;;;2.55;0.90;;;;;;;22.81;100.00;102561.44;6279787;28;20053;-77
2023/09/03 13:21:37;;;;;;;1.35;0.65;;;;;;;22.77;100.00;102558.13;6278058;28;20430;-77
2023/09/03 13:24:38;;;;;;;0.68;0.68;;;;;;;22.76;100.00;102551.91;6270735;28;20082;-77
2023/09/03 13:27:41;;;;;;;1.60;0.88;;;;;;;22.79;100.00;102556.19;6271557;28;20048;-78
2023/09/03 13:30:42;;;;;;;1.75;0.60;;;;;;;23.06;72.22;102566.63;6264754;28;20433;-78
2023/09/03 13:33:46;;;;;;;0.90;0.60;;;;;;;22.98;67.87;102566.38;6277330;28;20052;-78
2023/09/03 13:36:48;;;;;;;1.75;1.05;;;;;;;22.65;69.23;102564.41;6269175;28;20455;-76
2023/09/03 13:39:49;;;;;;;0.98;0.60;;;;;;;23.07;69.90;102559.44;6272021;28;20056;-76
2023/09/03 13:42:52;;;;;;;0.98;0.80;;;;;;;23.65;68.70;102555.75;6268627;28;20084;-78
2023/09/03 13:45:54;;;;;;;2.20;1.33;;;;;;;23.87;68.11;102544.13;6270589;28;20441;-82
2023/09/03 13:48:55;;;;;;;1.08;0.65;;;;;;;23.19;64.07;102543.25;6274922;28;20072;-79
2023/09/03 13:51:57;;;;;;;1.25;0.70;;;;;;;22.65;66.19;102543.81;6274324;28;20349;-77
2023/09/03 13:54:58;;;;;;;1.27;0.80;;;;;;;22.86;66.35;102543.19;6268075;28;20049;-76
2023/09/03 13:58:01;;;;;;;1.48;0.90;;;;;;;23.03;65.56;102548.97;6276963;28;20355;-78
2023/09/03 14:01:07;;;;;;;3.72;1.38;;;;;;;23.18;66.40;102548.75;6275187;28;20041;-78